Time;durP1;ratioP1;P1;durP2;ratioP2;P2;SDS_P1;SDS_P2;PMS_P1;PMS_P2;Temp;Humidity;BMP_temperature;BMP_pressure;BME280_temperature;BME280_humidity;BME280_pressure;Samples;Min_cycle;Max_cycle;Signal;HPM_P1;HPM_P2
2022/05/03 00:00:40;;;;;;;8.37;3.77;;;;;;;16.12;49.74;100051.81;5107702;28;20075;-72
2022/05/03 00:03:27;;;;;;;10.23;4.10;;;;;;;16.11;49.77;100058.59;5114834;28;20134;-74
2022/05/03 00:06:15;;;;;;;10.50;4.55;;;;;;;16.10;49.95;100059.75;5117152;28;20455;-74
2022/05/03 00:09:04;;;;;;;8.60;4.27;;;;;;;16.01;50.22;100064.56;5115999;27;20139;-74
2022/05/03 00:12:00;;;;;;;8.93;4.57;;;;;;;16.04;50.04;100066.72;5114319;28;20694;-73
2022/05/03 00:14:37;;;;;;;5.93;3.87;;;;;;;16.01;50.14;100068.19;5113795;28;20130;-72
2022/05/03 00:17:05;;;;;;;6.57;4.82;;;;;;;15.99;50.27;100064.03;5114862;28;20126;-73
2022/05/03 00:19:33;;;;;;;8.48;4.53;;;;;;;15.97;50.29;100061.56;5115075;28;20108;-72
2022/05/03 00:22:00;;;;;;;10.63;5.03;;;;;;;15.80;50.85;100044.66;5115874;28;20446;-72
2022/05/03 00:24:28;;;;;;;9.47;3.80;;;;;;;15.79;50.79;100055.06;5116292;28;20553;-73
2022/05/03 00:26:56;;;;;;;6.67;3.53;;;;;;;15.84;50.93;100066.19;5114046;28;20044;-72
2022/05/03 00:29:24;;;;;;;9.80;4.33;;;;;;;15.31;50.65;99979.91;5114337;28;20501;-72
2022/05/03 00:31:51;;;;;;;7.10;3.40;;;;;;;15.57;50.81;100041.06;5112420;28;20493;-73
2022/05/03 00:34:20;;;;;;;6.03;4.17;;;;;;;15.59;51.18;100059.31;5116120;28;20493;-73
2022/05/03 00:36:47;;;;;;;8.32;3.42;;;;;;;15.66;50.97;100075.75;5112301;28;20082;-72
2022/05/03 00:39:14;;;;;;;5.63;3.73;;;;;;;15.76;50.64;100086.72;5114188;28;20063;-73
2022/05/03 00:41:50;;;;;;;7.23;3.80;;;;;;;15.80;50.61;100079.25;5114475;28;20072;-73
2022/05/03 00:44:56;;;;;;;6.83;3.77;;;;;;;15.77;50.72;100077.09;5112675;28;20130;-75
2022/05/03 00:47:48;;;;;;;7.07;3.90;;;;;;;15.68;50.83;100076.22;5113456;28;20039;-74
2022/05/03 00:50:36;;;;;;;5.93;3.10;;;;;;;15.64;50.81;100078.84;5115513;28;20047;-76
2022/05/03 00:53:12;;;;;;;5.97;3.87;;;;;;;15.62;51.05;100080.31;5111658;28;20553;-74
2022/05/03 00:56:08;;;;;;;6.43;3.90;;;;;;;15.55;51.26;100077.16;5094767;28;20131;-76
2022/05/03 00:59:00;;;;;;;5.70;3.20;;;;;;;15.45;51.46;100081.06;5110576;28;20071;-75
2022/05/03 01:02:05;;;;;;;6.40;3.83;;;;;;;15.27;51.77;100094.25;5111731;28;20075;-75
2022/05/03 01:04:41;;;;;;;6.30;3.67;;;;;;;15.22;51.91;100091.59;5114781;27;20084;-76
2022/05/03 01:07:34;;;;;;;9.37;4.03;;;;;;;15.19;52.19;100089.41;5115018;28;20072;-79
2022/05/03 01:10:22;;;;;;;7.00;4.00;;;;;;;15.15;52.17;100094.03;5110705;28;20486;-80
2022/05/03 01:13:06;;;;;;;8.80;3.70;;;;;;;15.19;52.13;100100.66;5130721;28;20411;-79
2022/05/03 01:15:38;;;;;;;5.60;3.33;;;;;;;15.07;52.26;100066.66;5120761;28;20084;-75
2022/05/03 01:18:33;;;;;;;8.17;4.10;;;;;;;15.18;52.02;100082.13;5129248;28;20078;-76
2022/05/03 01:21:15;;;;;;;12.27;4.60;;;;;;;15.23;51.87;100081.97;5155164;27;20054;-77
2022/05/03 01:23:52;;;;;;;6.40;3.70;;;;;;;15.21;52.19;100084.28;5133596;28;20077;-75
2022/05/03 01:26:58;;;;;;;6.07;3.93;;;;;;;15.13;51.99;100074.66;5120975;28;20058;-76
2022/05/03 01:29:29;;;;;;;6.20;3.43;;;;;;;15.03;51.91;100051.59;5136196;28;20032;-77
2022/05/03 01:32:02;;;;;;;7.57;3.80;;;;;;;15.29;51.83;100077.88;5135799;28;20071;-77
2022/05/03 01:34:29;;;;;;;9.67;4.90;;;;;;;15.30;51.63;100065.47;5129353;28;20056;-75
2022/05/03 01:36:59;;;;;;;6.90;3.37;;;;;;;15.39;51.34;100066.34;5128723;28;20039;-77
2022/05/03 01:39:26;;;;;;;9.05;4.35;;;;;;;15.43;51.49;100076.94;5129369;28;20055;-76
2022/05/03 01:42:21;;;;;;;6.60;3.67;;;;;;;15.34;51.35;100068.47;5126994;28;20063;-75
2022/05/03 01:45:02;;;;;;;4.97;3.40;;;;;;;15.36;51.37;100063.34;5115531;28;20126;-73
2022/05/03 01:48:07;;;;;;;9.17;4.13;;;;;;;15.08;51.54;100015.75;5128711;28;20074;-80
2022/05/03 01:50:54;;;;;;;7.07;3.70;;;;;;;15.09;51.25;100025.84;5105620;28;20048;-76
2022/05/03 01:53:36;;;;;;;9.20;4.47;;;;;;;15.21;51.39;100042.09;5122771;28;20047;-72
2022/05/03 01:56:12;;;;;;;8.03;4.13;;;;;;;15.30;51.46;100057.03;5113640;28;20116;-72
2022/05/03 01:58:57;;;;;;;16.23;4.63;;;;;;;15.24;51.36;100049.88;5114476;28;20130;-71
2022/05/03 02:01:40;;;;;;;11.30;4.37;;;;;;;15.24;51.27;100052.69;5112126;28;20138;-71
2022/05/03 02:04:27;;;;;;;11.97;4.97;;;;;;;15.16;51.28;100033.81;5113779;28;20059;-70
2022/05/03 02:07:17;;;;;;;8.75;4.55;;;;;;;15.31;51.20;100053.06;5111021;28;20092;-70
2022/05/03 02:10:02;;;;;;;8.43;4.43;;;;;;;15.32;51.02;100060.34;5121292;28;20067;-74
2022/05/03 02:12:31;;;;;;;7.83;4.33;;;;;;;15.33;51.13;100056.38;5130755;28;20052;-75
2022/05/03 02:15:13;;;;;;;7.03;2.97;;;;;;;15.24;51.06;100040.63;5131609;28;20052;-74
2022/05/03 02:17:53;;;;;;;6.37;3.33;;;;;;;15.22;51.10;100032.50;5133554;28;20054;-75
2022/05/03 02:20:57;;;;;;;7.77;3.90;;;;;;;15.36;50.89;100050.09;5126845;28;20047;-75
2022/05/03 02:23:35;;;;;;;6.33;2.90;;;;;;;15.27;51.00;100040.78;5123271;28;20042;-75
2022/05/03 02:26:17;;;;;;;6.03;3.73;;;;;;;15.30;50.83;100051.41;5122803;27;20077;-77
2022/05/03 02:29:09;;;;;;;9.90;3.70;;;;;;;15.06;51.15;100048.97;5126580;28;20044;-76
2022/05/03 02:31:40;;;;;;;5.40;3.47;;;;;;;15.15;50.97;100069.53;5132208;28;20048;-77
2022/05/03 02:34:09;;;;;;;7.63;4.00;;;;;;;15.11;51.13;100060.09;5133045;28;20047;-77
2022/05/03 02:36:45;;;;;;;9.93;3.80;;;;;;;14.96;51.43;100063.31;5134454;28;20054;-76
2022/05/03 02:39:14;;;;;;;7.63;3.67;;;;;;;14.99;51.63;100076.72;5164409;27;20071;-75
2022/05/03 02:41:46;;;;;;;8.47;3.90;;;;;;;14.89;51.75;100057.31;5128700;28;20050;-70
2022/05/03 02:44:13;;;;;;;8.03;4.27;;;;;;;14.95;51.63;100072.06;5110681;28;20074;-71
2022/05/03 02:47:05;;;;;;;12.87;5.03;;;;;;;14.91;51.89;100080.31;5112042;28;20059;-70
2022/05/03 02:50:04;;;;;;;8.50;4.70;;;;;;;14.84;51.99;100082.75;5113631;28;20505;-71
2022/05/03 02:52:49;;;;;;;12.87;5.07;;;;;;;14.72;52.02;100063.66;5112550;28;20071;-72
2022/05/03 02:55:42;;;;;;;7.20;3.87;;;;;;;14.80;52.11;100079.75;5101063;28;20179;-70
2022/05/03 02:58:25;;;;;;;5.70;3.73;;;;;;;14.59;52.31;100054.13;5106800;28;20127;-73
2022/05/03 03:04:18;;;;;;;8.10;4.53;;;;;;;14.44;52.51;100052.50;5111378;28;20043;-71
2022/05/03 03:06:47;;;;;;;9.60;4.63;;;;;;;14.49;52.80;100071.22;5116529;27;20075;-72
2022/05/03 03:09:20;;;;;;;7.30;4.03;;;;;;;14.52;52.84;100066.97;5111596;28;20043;-71
2022/05/03 03:12:03;;;;;;;9.00;4.00;;;;;;;14.59;52.88;100087.84;5109080;28;20127;-69
2022/05/03 03:14:55;;;;;;;6.83;3.97;;;;;;;14.54;52.77;100076.75;5107907;28;20455;-70
2022/05/03 03:17:29;;;;;;;10.83;4.67;;;;;;;14.60;52.64;100075.47;5110756;28;20079;-69
2022/05/03 03:19:56;;;;;;;12.53;4.40;;;;;;;14.59;52.81;100081.41;5111236;28;20146;-70
2022/05/03 03:22:27;;;;;;;6.80;3.90;;;;;;;14.55;52.86;100074.78;5112173;28;20078;-70
2022/05/03 03:24:56;;;;;;;9.90;4.73;;;;;;;14.36;53.15;100044.88;5111666;28;20048;-69
2022/05/03 03:27:26;;;;;;;7.33;4.00;;;;;;;14.40;52.70;100050.66;5112143;28;20142;-73
2022/05/03 03:29:55;;;;;;;8.45;3.90;;;;;;;14.37;52.95;100043.69;5113154;28;20149;-73
2022/05/03 03:32:25;;;;;;;7.47;4.40;;;;;;;14.35;53.21;100051.59;5113461;28;20078;-72
2022/05/03 03:34:56;;;;;;;7.50;3.60;;;;;;;14.52;53.00;100072.59;5113289;28;20138;-73
2022/05/03 03:37:36;;;;;;;7.93;4.63;;;;;;;14.51;53.05;100068.97;5110154;28;20134;-73
2022/05/03 03:40:05;;;;;;;7.35;4.03;;;;;;;14.39;53.11;100033.00;5111392;28;20079;-72
2022/05/03 03:42:31;;;;;;;10.03;4.23;;;;;;;14.41;53.02;100053.16;5111874;28;20078;-73
2022/05/03 03:45:07;;;;;;;8.27;4.13;;;;;;;14.52;53.14;100069.78;5111101;28;20044;-72
2022/05/03 03:47:35;;;;;;;6.87;4.67;;;;;;;14.33;53.33;100048.31;5112019;28;20044;-72
2022/05/03 03:50:03;;;;;;;5.90;3.87;;;;;;;14.37;53.69;100062.53;5111870;28;20055;-72
2022/05/03 03:52:32;;;;;;;6.57;3.97;;;;;;;14.29;53.59;100063.28;5110157;28;20122;-71
2022/05/03 03:55:00;;;;;;;8.23;4.60;;;;;;;14.18;53.85;100059.88;5110622;28;20410;-73
2022/05/03 03:57:35;;;;;;;8.43;4.57;;;;;;;14.22;53.90;100061.75;5112452;28;20069;-73
2022/05/03 04:00:07;;;;;;;11.33;4.90;;;;;;;14.25;53.80;100063.09;5112842;28;20074;-73
2022/05/03 04:02:35;;;;;;;10.60;5.10;;;;;;;14.25;53.96;100074.31;5113111;28;20126;-73
2022/05/03 04:05:03;;;;;;;9.67;4.63;;;;;;;14.21;54.10;100070.50;5111308;28;20059;-73
2022/05/03 04:07:30;;;;;;;6.77;4.00;;;;;;;13.99;54.53;100041.22;5109877;28;20040;-72
2022/05/03 04:09:57;;;;;;;10.87;4.40;;;;;;;14.01;54.28;100059.72;5116385;28;20063;-74
2022/05/03 04:12:24;;;;;;;12.03;4.80;;;;;;;14.09;54.13;100061.81;5112352;28;20134;-74
2022/05/03 04:14:51;;;;;;;6.90;4.50;;;;;;;14.11;54.31;100065.09;5108440;28;20130;-74
2022/05/03 04:17:18;;;;;;;8.57;4.77;;;;;;;14.10;54.30;100071.88;5118415;28;20047;-74
2022/05/03 04:19:45;;;;;;;6.47;4.40;;;;;;;14.04;54.36;100070.31;5120780;28;20047;-76
2022/05/03 04:22:27;;;;;;;9.53;4.40;;;;;;;13.95;54.45;100070.25;5117482;28;20137;-75
2022/05/03 04:24:54;;;;;;;12.33;4.80;;;;;;;13.88;55.00;100067.88;5119350;28;20079;-79
2022/05/03 04:27:21;;;;;;;6.73;3.37;;;;;;;13.84;55.23;100058.41;5120052;28;20075;-76
2022/05/03 04:29:49;;;;;;;7.63;4.03;;;;;;;13.56;55.26;100007.13;5114992;27;20127;-76
2022/05/03 04:32:17;;;;;;;4.70;3.10;;;;;;;13.92;54.97;100071.72;5115469;28;20096;-77
2022/05/03 04:34:44;;;;;;;7.03;3.97;;;;;;;13.89;55.15;100063.91;5115544;28;20470;-76
2022/05/03 04:37:11;;;;;;;7.07;3.83;;;;;;;13.73;54.96;100034.53;5116328;27;20051;-76
2022/05/03 04:39:38;;;;;;;7.90;3.03;;;;;;;13.79;54.81;100047.31;5115163;28;20249;-76
2022/05/03 04:42:06;;;;;;;6.70;4.10;;;;;;;13.90;55.01;100057.16;5112029;28;20082;-77
2022/05/03 04:44:33;;;;;;;4.80;2.83;;;;;;;13.90;54.87;100065.56;5149214;27;20541;-77
2022/05/03 04:46:59;;;;;;;6.03;3.77;;;;;;;13.63;54.89;100015.09;5113315;28;20083;-75
2022/05/03 04:49:26;;;;;;;5.53;3.13;;;;;;;13.85;55.01;100048.88;5114218;28;20048;-76
2022/05/03 04:51:54;;;;;;;4.87;2.53;;;;;;;14.04;54.79;100081.56;5114144;28;20396;-73
2022/05/03 04:54:21;;;;;;;5.53;3.03;;;;;;;13.99;54.80;100065.66;5115812;28;20161;-71
2022/05/03 04:56:51;;;;;;;7.53;3.50;;;;;;;14.10;54.47;100057.84;5110715;28;20421;-72
2022/05/03 04:59:18;;;;;;;6.97;3.07;;;;;;;14.18;54.17;100065.50;5113372;28;20518;-70
2022/05/03 05:01:45;;;;;;;8.00;3.30;;;;;;;14.31;53.84;100067.44;5114711;28;20505;-83
2022/05/03 05:04:12;;;;;;;6.70;3.47;;;;;;;14.35;53.71;100068.47;5116537;28;20075;-83
2022/05/03 05:06:38;;;;;;;4.43;2.73;;;;;;;14.33;53.54;100062.34;5113918;28;20067;-81
2022/05/03 05:09:05;;;;;;;4.73;2.63;;;;;;;14.37;53.69;100065.34;5112413;28;20471;-82
2022/05/03 05:11:32;;;;;;;8.87;3.57;;;;;;;14.44;53.38;100079.78;5141821;27;20498;-78
2022/05/03 05:13:59;;;;;;;6.67;2.97;;;;;;;14.43;53.45;100078.13;5109626;28;20578;-82
2022/05/03 05:16:26;;;;;;;8.33;3.73;;;;;;;14.50;53.51;100105.78;5114560;28;20071;-82
2022/05/03 05:18:53;;;;;;;10.37;3.50;;;;;;;14.25;53.45;100071.50;5117222;28;20093;-86
2022/05/03 05:21:20;;;;;;;13.17;3.97;;;;;;;14.47;53.31;100096.00;5114369;28;20130;-80
2022/05/03 05:23:47;;;;;;;6.60;3.57;;;;;;;14.27;53.49;100068.41;5115882;28;20082;-84
2022/05/03 05:26:14;;;;;;;6.00;3.20;;;;;;;14.22;53.46;100077.75;5110493;28;20094;-72
2022/05/03 05:28:41;;;;;;;6.07;3.73;;;;;;;14.33;53.71;100106.47;5113654;28;20044;-74
2022/05/03 05:31:08;;;;;;;8.57;3.50;;;;;;;14.24;53.82;100103.56;5115240;28;20473;-74
2022/05/03 05:33:34;;;;;;;7.23;3.60;;;;;;;14.09;54.18;100101.13;5116924;28;20051;-72
2022/05/03 05:36:01;;;;;;;7.63;4.37;;;;;;;13.81;54.52;100075.91;5120753;27;20123;-72
2022/05/03 05:38:28;;;;;;;10.27;4.40;;;;;;;14.02;54.47;100114.72;5112758;27;20093;-72
2022/05/03 05:40:55;;;;;;;7.30;4.10;;;;;;;13.81;54.28;100072.25;5112055;28;20052;-72
2022/05/03 05:43:22;;;;;;;6.00;3.70;;;;;;;13.87;54.41;100082.22;5114445;28;20448;-71
2022/05/03 05:45:49;;;;;;;7.03;4.20;;;;;;;13.93;54.36;100095.00;5112990;28;20142;-71
2022/05/03 05:48:15;;;;;;;7.73;3.50;;;;;;;14.03;54.64;100088.34;5094996;28;20148;-71
2022/05/03 05:50:43;;;;;;;7.67;3.90;;;;;;;14.29;54.30;100113.84;5110731;27;20127;-72
2022/05/03 05:55:55;;;;;;;8.30;3.37;;;;;;;14.09;54.39;100085.09;5105803;27;20075;-75
2022/05/03 05:58:22;;;;;;;7.10;3.60;;;;;;;14.39;54.50;100122.88;5109743;28;20139;-74
2022/05/03 06:00:49;;;;;;;6.63;3.57;;;;;;;14.58;54.33;100128.34;5109735;27;20122;-73
2022/05/03 06:03:16;;;;;;;8.27;3.90;;;;;;;14.62;54.25;100094.81;5113170;27;20051;-72
2022/05/03 06:05:43;;;;;;;9.27;3.93;;;;;;;15.07;53.85;100122.91;5110567;27;20450;-74
2022/05/03 06:08:10;;;;;;;9.17;3.90;;;;;;;15.32;53.56;100127.88;5112713;28;20086;-73
2022/05/03 06:10:38;;;;;;;5.03;3.37;;;;;;;15.17;53.59;100115.03;5107820;27;20424;-71
2022/05/03 06:13:05;;;;;;;6.17;3.80;;;;;;;15.15;53.74;100130.59;5101859;28;20130;-73
2022/05/03 06:15:32;;;;;;;6.93;4.30;;;;;;;15.10;53.85;100125.09;5107444;28;20135;-73
2022/05/03 06:17:59;;;;;;;7.83;3.80;;;;;;;15.25;53.91;100143.56;5109199;27;20138;-73
2022/05/03 06:20:26;;;;;;;5.27;3.37;;;;;;;15.19;53.97;100120.34;5110845;28;20461;-73
2022/05/03 06:22:54;;;;;;;6.93;4.53;;;;;;;15.40;53.77;100134.69;5111961;28;20073;-72
2022/05/03 06:25:22;;;;;;;10.20;4.70;;;;;;;15.52;53.33;100142.53;5111529;28;20417;-74
2022/05/03 06:27:50;;;;;;;7.13;3.57;;;;;;;15.70;53.16;100137.84;5104046;28;20049;-74
2022/05/03 06:30:17;;;;;;;7.77;4.10;;;;;;;15.79;53.14;100138.69;5104781;28;20079;-73
2022/05/03 06:32:44;;;;;;;13.23;6.23;;;;;;;15.88;52.76;100146.03;5109934;28;20469;-73
2022/05/03 06:35:12;;;;;;;11.47;4.67;;;;;;;15.86;52.65;100119.34;5113064;28;20091;-75
2022/05/03 06:37:42;;;;;;;9.37;4.13;;;;;;;15.91;52.50;100107.94;5111408;27;20432;-77
2022/05/03 06:40:10;;;;;;;12.00;6.32;;;;;;;16.09;52.20;100120.06;5103790;28;20042;-73
2022/05/03 06:42:39;;;;;;;8.47;4.67;;;;;;;16.29;52.06;100133.53;5107287;27;20078;-73
2022/05/03 06:45:08;;;;;;;9.25;4.15;;;;;;;16.27;51.81;100118.97;5109875;27;20421;-72
2022/05/03 06:47:42;;;;;;;7.40;4.68;;;;;;;16.58;51.75;100148.97;5103970;28;20391;-73
2022/05/03 06:50:10;;;;;;;6.75;4.82;;;;;;;16.67;50.84;100144.16;5102350;27;20494;-74
2022/05/03 06:52:37;;;;;;;8.25;3.95;;;;;;;16.72;51.18;100132.75;5105738;28;20069;-75
2022/05/03 06:55:05;;;;;;;9.10;4.00;;;;;;;17.29;50.67;100135.31;5108616;28;20135;-76
2022/05/03 06:57:32;;;;;;;8.93;4.75;;;;;;;17.97;49.87;100162.84;5110947;28;20154;-76
2022/05/03 07:00:01;;;;;;;9.82;4.80;;;;;;;18.44;49.23;100159.91;5110319;28;20040;-77
2022/05/03 07:02:36;;;;;;;6.97;3.60;;;;;;;18.90;48.81;100150.41;5106137;28;20501;-78
2022/05/03 07:05:04;;;;;;;6.25;4.20;;;;;;;19.33;47.92;100148.34;5105498;28;20050;-76
2022/05/03 07:07:32;;;;;;;5.82;3.53;;;;;;;19.61;47.51;100155.03;5110279;28;20086;-75
2022/05/03 07:10:02;;;;;;;5.07;3.33;;;;;;;19.64;47.12;100133.69;5107482;28;20605;-74
2022/05/03 07:12:30;;;;;;;6.90;5.00;;;;;;;19.86;46.49;100140.91;5107989;28;20071;-76
2022/05/03 07:15:04;;;;;;;10.30;5.85;;;;;;;20.16;46.59;100152.03;5106453;28;20105;-76
2022/05/03 07:23:03;;;;;;;6.80;4.13;;;;;;;20.77;45.47;100157.63;5110916;28;20078;-75
2022/05/03 07:25:30;;;;;;;10.38;5.93;;;;;;;20.70;45.26;100137.56;5106505;28;22374;-76
2022/05/03 07:27:57;;;;;;;7.95;4.00;;;;;;;20.87;44.74;100139.28;5106254;28;20107;-76
2022/05/03 07:30:23;;;;;;;7.60;4.20;;;;;;;21.03;44.20;100143.81;5108635;28;20142;-76
2022/05/03 07:32:50;;;;;;;7.93;3.70;;;;;;;21.09;43.97;100135.03;5108611;28;20071;-76
2022/05/03 07:35:17;;;;;;;7.78;3.90;;;;;;;21.06;43.80;100116.75;5103301;28;20130;-75
2022/05/03 07:37:44;;;;;;;8.35;4.47;;;;;;;21.40;43.72;100157.88;5111874;28;20082;-75
2022/05/03 07:40:11;;;;;;;8.25;4.20;;;;;;;21.47;43.10;100155.25;5108911;28;20039;-75
2022/05/03 07:42:39;;;;;;;4.95;3.55;;;;;;;21.37;43.36;100140.72;5104609;28;20067;-76
2022/05/03 07:45:06;;;;;;;7.95;4.07;;;;;;;21.29;42.93;100145.34;5100449;28;20138;-73
2022/05/03 07:47:33;;;;;;;8.40;4.20;;;;;;;21.06;43.13;100174.34;5105850;28;20131;-73
2022/05/03 07:50:01;;;;;;;8.40;4.18;;;;;;;20.89;43.10;100159.59;5113532;28;20143;-74
2022/05/03 07:52:28;;;;;;;11.68;5.60;;;;;;;20.68;43.25;100145.59;5111374;28;20147;-73
2022/05/03 07:54:55;;;;;;;8.77;4.30;;;;;;;20.75;43.20;100149.50;5122984;27;20126;-73
2022/05/03 07:57:24;;;;;;;10.27;3.33;;;;;;;20.89;42.96;100171.78;5107550;27;20182;-74
2022/05/03 07:59:54;;;;;;;6.18;3.55;;;;;;;20.57;43.03;100112.03;5112764;27;20110;-73
2022/05/03 08:02:26;;;;;;;7.28;3.85;;;;;;;20.99;42.99;100170.44;5110428;27;20044;-73
2022/05/03 08:04:54;;;;;;;8.43;3.42;;;;;;;21.02;42.61;100170.53;5113697;28;20059;-73
2022/05/03 08:07:21;;;;;;;5.82;2.78;;;;;;;21.12;42.40;100179.75;5109577;27;20101;-73
2022/05/03 08:09:48;;;;;;;7.18;3.65;;;;;;;21.19;42.55;100179.94;5112071;27;20075;-73
2022/05/03 08:12:16;;;;;;;11.32;4.75;;;;;;;21.32;42.34;100184.38;5111860;27;20054;-73
2022/05/03 08:14:43;;;;;;;14.15;6.63;;;;;;;21.40;42.29;100172.09;5112667;27;20086;-73
2022/05/03 08:17:10;;;;;;;5.90;4.43;;;;;;;21.56;41.97;100172.09;5111947;27;20046;-73
2022/05/03 08:19:38;;;;;;;10.07;5.45;;;;;;;21.71;41.77;100181.84;5112831;27;20036;-73
2022/05/03 08:22:05;;;;;;;8.52;3.75;;;;;;;21.86;41.53;100185.91;5113594;28;20086;-73
2022/05/03 08:24:32;;;;;;;5.60;4.15;;;;;;;21.97;41.26;100189.84;5110418;27;20055;-73
2022/05/03 08:27:01;;;;;;;6.03;3.05;;;;;;;22.07;41.04;100165.72;5112313;27;20047;-74
2022/05/03 08:29:29;;;;;;;7.80;3.65;;;;;;;22.23;41.05;100186.47;5113372;28;20054;-74
2022/05/03 08:31:56;;;;;;;7.90;2.67;;;;;;;22.16;40.55;100158.69;5111172;28;20130;-72
2022/05/03 08:34:23;;;;;;;9.25;3.03;;;;;;;22.45;40.20;100180.09;5114597;27;20130;-73
2022/05/03 08:42:21;;;;;;;5.30;2.92;;;;;;;22.84;39.59;100168.81;5109349;28;20123;-74
2022/05/03 08:44:48;;;;;;;4.93;3.30;;;;;;;23.00;39.17;100167.94;5114858;27;20083;-74
2022/05/03 08:47:18;;;;;;;5.32;3.33;;;;;;;23.07;38.57;100159.53;5115658;28;20047;-73
2022/05/03 08:49:55;;;;;;;5.93;3.45;;;;;;;23.18;38.91;100167.13;5114823;27;20051;-73
2022/05/03 08:52:23;;;;;;;8.93;3.70;;;;;;;23.32;38.96;100180.00;5115522;28;20047;-73
2022/05/03 08:54:50;;;;;;;7.22;3.67;;;;;;;23.46;38.73;100179.47;5108420;28;20467;-74
2022/05/03 08:57:18;;;;;;;5.57;2.80;;;;;;;23.61;38.08;100158.56;5108020;28;20139;-74
2022/05/03 08:59:48;;;;;;;4.77;3.07;;;;;;;23.68;37.95;100157.91;5111626;28;20119;-74
2022/05/03 09:02:15;;;;;;;5.40;2.97;;;;;;;23.86;38.00;100167.59;5112131;27;20142;-74
2022/05/03 09:04:42;;;;;;;5.80;3.35;;;;;;;24.04;38.07;100176.50;5110616;28;20451;-73
2022/05/03 09:07:36;;;;;;;5.65;2.80;;;;;;;24.08;37.69;100155.38;5110093;27;20071;-74
2022/05/03 09:10:33;;;;;;;5.43;3.08;;;;;;;24.11;37.71;100166.03;5110092;27;20126;-74
2022/05/03 09:13:22;;;;;;;5.53;2.72;;;;;;;24.23;36.83;100169.88;5109530;27;20051;-73
2022/05/03 09:15:52;;;;;;;7.10;3.45;;;;;;;24.27;36.36;100137.34;5114548;27;20112;-73
2022/05/03 09:18:29;;;;;;;5.53;3.15;;;;;;;24.85;36.29;100178.16;5114765;27;20075;-77
2022/05/03 09:23:50;;;;;;;6.43;3.00;;;;;;;25.20;35.30;100181.53;5113316;27;20456;-84
2022/05/03 09:26:26;;;;;;;5.53;2.90;;;;;;;25.22;35.16;100170.53;5112598;27;20126;-78
2022/05/03 09:29:08;;;;;;;5.30;2.70;;;;;;;25.20;34.97;100169.31;5113274;27;20083;-83
2022/05/03 09:31:47;;;;;;;5.78;3.10;;;;;;;25.44;34.58;100159.38;5108002;27;20053;-82
2022/05/03 09:34:18;;;;;;;4.28;3.40;;;;;;;25.63;34.09;100170.59;5106319;27;20050;-80
2022/05/03 09:36:53;;;;;;;8.35;3.28;;;;;;;25.75;34.07;100169.50;5113246;28;20070;-82
2022/05/03 09:39:46;;;;;;;3.58;2.38;;;;;;;25.99;33.91;100174.66;5108610;27;20047;-80
2022/05/03 09:42:16;;;;;;;5.03;3.13;;;;;;;26.10;33.50;100176.81;5110462;28;20079;-77
2022/05/03 09:44:52;;;;;;;5.60;2.42;;;;;;;26.19;33.65;100177.31;5111070;28;20078;-79
2022/05/03 09:47:24;;;;;;;4.50;2.40;;;;;;;26.19;33.56;100178.13;5110371;28;20055;-77
2022/05/03 09:49:52;;;;;;;5.85;3.38;;;;;;;26.21;33.05;100164.22;5110716;27;20043;-76
2022/05/03 09:52:29;;;;;;;4.10;2.85;;;;;;;26.20;32.97;100176.88;5109072;28;20066;-76
2022/05/03 09:55:06;;;;;;;8.57;2.88;;;;;;;26.17;32.97;100160.50;5108569;27;20043;-79
2022/05/03 09:57:38;;;;;;;6.55;3.15;;;;;;;26.32;32.99;100170.03;5111930;27;20105;-77
2022/05/03 10:00:11;;;;;;;5.07;2.40;;;;;;;26.41;32.62;100163.97;5114703;28;20139;-77
2022/05/03 10:02:43;;;;;;;5.43;2.70;;;;;;;26.69;32.67;100167.03;5112164;27;20460;-82
2022/05/03 10:05:14;;;;;;;3.42;1.98;;;;;;;26.81;32.16;100173.69;5109191;27;20059;-77
2022/05/03 10:07:43;;;;;;;4.20;2.38;;;;;;;26.84;31.97;100162.22;5111457;27;20051;-77
2022/05/03 10:10:10;;;;;;;;;;;;;;;27.03;33.22;100180.31;5111850;27;20130;-77
2022/05/03 10:12:38;;;;;;;4.80;2.35;;;;;;;27.48;31.38;100187.50;5111393;28;19920;-83
2022/05/03 10:15:05;;;;;;;5.03;2.83;;;;;;;27.29;30.18;100148.53;5113789;27;20070;-80
2022/05/03 10:20:40;;;;;;;3.15;2.17;;;;;;;27.56;30.37;100174.84;5111997;27;20558;-77
2022/05/03 10:23:32;;;;;;;3.40;2.10;;;;;;;27.80;30.27;100161.00;5110492;27;20044;-76
2022/05/03 10:26:00;;;;;;;2.80;2.13;;;;;;;28.07;29.59;100176.59;5108175;27;20179;-76
2022/05/03 10:29:09;;;;;;;5.40;2.28;;;;;;;28.13;29.91;100147.47;5111220;28;20126;-76
2022/05/03 10:31:54;;;;;;;3.17;1.95;;;;;;;28.47;29.72;100142.94;5048988;28;20490;-78
2022/05/03 10:34:40;;;;;;;8.88;2.30;;;;;;;28.65;29.20;100156.44;5105528;27;20878;-81
2022/05/03 10:37:07;;;;;;;5.75;1.92;;;;;;;28.75;28.67;100165.06;5104213;28;20060;-77
2022/05/03 10:39:54;;;;;;;2.40;1.80;;;;;;;28.83;28.52;100154.38;5110841;28;20101;-75
2022/05/03 10:42:26;;;;;;;3.05;2.00;;;;;;;29.01;27.91;100155.16;5108881;28;20055;-75
2022/05/03 10:44:53;;;;;;;3.45;2.15;;;;;;;29.16;27.86;100160.84;5097291;28;20153;-76
2022/05/03 10:47:38;;;;;;;3.00;1.95;;;;;;;29.21;27.95;100146.03;5112131;28;20136;-76
2022/05/03 10:50:11;;;;;;;3.38;2.22;;;;;;;29.32;27.51;100164.06;5116158;27;20067;-76
2022/05/03 10:52:58;;;;;;;2.28;1.42;;;;;;;29.39;28.18;100157.44;5118485;28;20475;-75
2022/05/03 10:55:28;;;;;;;8.23;2.55;;;;;;;29.67;27.75;100160.19;5103833;28;20112;-76
2022/05/03 10:58:20;;;;;;;5.53;2.10;;;;;;;29.83;27.64;100158.88;5110914;28;20079;-75
2022/05/03 11:01:20;;;;;;;3.97;2.15;;;;;;;30.16;27.63;100158.19;5109308;28;20108;-76
2022/05/03 11:03:54;;;;;;;3.55;2.25;;;;;;;30.38;27.01;100160.91;5110559;28;20048;-75
2022/05/03 11:06:25;;;;;;;4.40;1.83;;;;;;;30.59;26.83;100160.69;5109376;28;20047;-75
2022/05/03 11:11:43;;;;;;;3.47;1.98;;;;;;;31.10;26.36;100146.56;5106509;28;20043;-76
2022/05/03 11:14:20;;;;;;;5.15;2.20;;;;;;;31.30;25.87;100147.53;5109380;28;20039;-76
2022/05/03 11:17:05;;;;;;;5.35;1.85;;;;;;;31.29;26.51;100148.78;5105401;28;20104;-75
2022/05/03 11:19:48;;;;;;;2.83;2.05;;;;;;;31.14;26.06;100135.78;5110472;28;20047;-75
2022/05/03 11:22:19;;;;;;;2.88;1.70;;;;;;;31.46;25.29;100146.13;5108854;28;20051;-76
2022/05/03 11:24:51;;;;;;;2.15;1.73;;;;;;;31.77;25.60;100130.41;5108445;28;20134;-75
2022/05/03 11:27:19;;;;;;;2.95;2.10;;;;;;;31.90;24.97;100139.31;5109416;28;20051;-75
2022/05/03 11:29:46;;;;;;;3.47;2.70;;;;;;;31.80;25.33;100143.97;5109731;28;20044;-76
2022/05/03 11:32:17;;;;;;;3.83;2.65;;;;;;;31.65;25.82;100128.09;5111388;28;20126;-76
2022/05/03 11:34:44;;;;;;;6.43;2.88;;;;;;;31.82;25.59;100114.66;5110661;28;20578;-76
2022/05/03 11:37:11;;;;;;;2.80;2.38;;;;;;;31.99;25.56;100135.84;5110663;28;20164;-75
2022/05/03 11:39:38;;;;;;;2.53;1.90;;;;;;;31.52;25.06;100113.47;5105170;28;20138;-75
2022/05/03 11:42:09;;;;;;;5.72;2.28;;;;;;;31.71;24.82;100117.72;5110099;28;20552;-76
2022/05/03 11:44:41;;;;;;;2.90;1.77;;;;;;;32.07;24.62;100120.06;5110715;28;20083;-76
2022/05/03 11:47:14;;;;;;;3.35;2.42;;;;;;;32.10;23.53;100107.59;5140037;27;20047;-75
2022/05/03 11:49:43;;;;;;;5.15;2.00;;;;;;;31.81;23.94;100073.41;5107139;28;20588;-75
2022/05/03 11:55:58;;;;;;;2.58;1.80;;;;;;;32.75;23.34;100116.75;5108894;28;20048;-76
2022/05/03 11:58:01;;;;;;;3.67;2.28;;;;;;;32.69;23.65;100124.31;5106834;28;20086;-77
2022/05/03 12:00:29;;;;;;;3.70;1.90;;;;;;;33.08;23.17;100114.03;5108590;28;20052;-76
2022/05/03 12:03:00;;;;;;;2.78;1.80;;;;;;;33.39;22.49;100111.69;5103432;28;20047;-76
2022/05/03 12:05:28;;;;;;;2.63;1.70;;;;;;;34.26;21.93;100122.03;5111104;28;20112;-77
2022/05/03 12:07:56;;;;;;;3.15;2.30;;;;;;;34.78;21.14;100116.09;5109792;28;20197;-74
2022/05/03 12:10:38;;;;;;;3.03;1.60;;;;;;;34.03;21.47;100062.22;5107835;28;20047;-73
2022/05/03 12:13:12;;;;;;;2.30;1.70;;;;;;;33.21;21.95;100088.94;5110844;28;20168;-75
2022/05/03 12:15:39;;;;;;;3.47;2.17;;;;;;;32.74;21.96;100111.41;5101052;28;20044;-75
2022/05/03 12:18:13;;;;;;;1.93;1.70;;;;;;;32.17;22.61;100090.16;5110446;28;20047;-75
2022/05/03 12:20:51;;;;;;;3.53;1.90;;;;;;;32.17;22.32;100083.56;5111069;28;20119;-74